Overijse, Belgium
Current Conditions -  °F | °C
As of 12:20 AM on Sunday 26 Oct 2014 (Local Time) from EBBR Reporting Station
Broken Clouds Broken Clouds  
Wind Chill: 11°   Ceiling: 4200
Heat Index: 11°   Visibility: 6mi
Dew Point:   Wind: 6mph
Humidity: 88%   Direction: 190°S
Pressure: 30.21"   Gusts: NA
Location:  50.77°N, 4.53°E
Report Text: EBBR 252220Z 19005KT 9999 BKN042 11/09 Q1023 NOSIG
Loading
Personal Weather Stations






























Interactive Weather Map
Tropical Storm Tracking
New forecast layout! Learn more

10-Day Weather Forecast

Advertisements
Track Severe Weather on mobile